Time;durP1;ratioP1;P1;durP2;ratioP2;P2;SDS_P1;SDS_P2;PMS_P1;PMS_P2;Temp;Humidity;BMP_temperature;BMP_pressure;BME280_temperature;BME280_humidity;BME280_pressure;Samples;Min_cycle;Max_cycle;Signal;HPM_P1;HPM_P2
2022/12/25 00:01:46;;;;;;;3.43;1.70;;;12.30;80.40;12.40;96639.00;;;;5104412;28;20219;-86
2022/12/25 00:04:13;;;;;;;2.77;1.70;;;12.30;80.70;12.40;96636.00;;;;5083285;28;20242;-85
2022/12/25 00:06:40;;;;;;;3.20;1.60;;;12.30;80.90;12.40;96653.00;;;;5088626;28;20231;-86
2022/12/25 00:09:07;;;;;;;11.20;2.53;;;12.30;81.00;12.40;96649.00;;;;5084681;28;20288;-85
2022/12/25 00:11:34;;;;;;;5.97;2.60;;;12.30;81.10;12.40;96648.00;;;;5088914;28;20283;-85
2022/12/25 00:14:01;;;;;;;2.50;2.33;;;12.30;81.00;12.40;96653.00;;;;5084310;28;20326;-85
2022/12/25 00:16:30;;;;;;;3.27;2.40;;;12.30;80.80;12.30;96652.00;;;;5096085;28;20234;-87
2022/12/25 00:18:59;;;;;;;2.37;2.17;;;12.30;80.60;12.30;96659.00;;;;5082998;28;20239;-85
2022/12/25 00:21:27;;;;;;;4.13;2.53;;;12.20;80.60;12.30;96664.00;;;;5076026;28;20253;-85
2022/12/25 00:23:58;;;;;;;3.63;2.20;;;12.20;80.80;12.30;96668.00;;;;5091462;28;20217;-85
2022/12/25 00:26:28;;;;;;;3.97;2.33;;;12.20;80.90;12.20;96660.00;;;;5095601;28;20584;-85
2022/12/25 00:28:57;;;;;;;2.80;1.90;;;12.20;80.80;12.20;96657.00;;;;5082742;28;20199;-85
2022/12/25 00:31:25;;;;;;;3.40;2.10;;;12.20;80.80;12.20;96657.00;;;;5095873;28;20207;-86
2022/12/25 00:33:54;;;;;;;4.77;2.17;;;12.20;80.80;12.20;96662.00;;;;5081524;28;20328;-85
2022/12/25 00:36:23;;;;;;;16.63;3.03;;;12.20;80.70;12.20;96668.00;;;;5080080;28;20200;-85
2022/12/25 00:38:50;;;;;;;5.07;2.37;;;12.10;80.70;12.20;96671.00;;;;5075070;28;20192;-85
2022/12/25 00:42:17;;;;;;;3.43;2.20;;;12.10;80.90;12.20;96662.00;;;;5094495;28;20286;-85
2022/12/25 00:44:09;;;;;;;6.13;2.47;;;12.10;81.00;12.20;96672.00;;;;5090892;28;20228;-85
2022/12/25 00:46:36;;;;;;;3.27;2.17;;;12.10;81.00;12.20;96668.00;;;;5095770;28;20207;-85
2022/12/25 00:49:05;;;;;;;2.50;2.30;;;12.10;81.00;12.20;96652.00;;;;5082937;28;20234;-85
2022/12/25 00:51:33;;;;;;;2.13;1.90;;;12.10;81.60;12.20;96649.00;;;;5092397;28;20278;-85
2022/12/25 00:54:00;;;;;;;6.43;2.73;;;12.10;81.10;12.20;96657.00;;;;5095831;28;20227;-85
2022/12/25 00:56:27;;;;;;;7.87;2.97;;;12.10;81.20;12.20;96656.00;;;;5095356;28;20187;-87
2022/12/25 00:58:55;;;;;;;4.83;2.23;;;12.10;81.30;12.20;96654.00;;;;5095414;28;20250;-86
2022/12/25 01:01:22;;;;;;;3.07;2.13;;;12.10;81.20;12.10;96654.00;;;;5095153;28;20694;-86
2022/12/25 01:03:49;;;;;;;2.33;2.10;;;12.10;81.30;12.10;96656.00;;;;5095574;28;20251;-85
2022/12/25 01:06:21;;;;;;;2.40;2.13;;;12.10;81.10;12.10;96664.00;;;;5089837;28;20279;-85
2022/12/25 01:11:30;;;;;;;2.33;2.13;;;12.10;81.00;12.10;96667.00;;;;5078798;28;20208;-86
2022/12/25 01:13:58;;;;;;;2.10;1.90;;;12.10;81.80;12.00;96676.00;;;;5074718;28;20255;-85
2022/12/25 01:16:25;;;;;;;3.87;1.90;;;12.00;81.20;12.00;96678.00;;;;5091516;28;20199;-85
2022/12/25 01:18:52;;;;;;;5.23;2.30;;;12.00;81.20;12.00;96672.00;;;;5082696;28;20670;-87
2022/12/25 01:21:22;;;;;;;2.93;1.83;;;12.00;81.30;12.10;96665.00;;;;5093761;28;20278;-85
2022/12/25 01:23:51;;;;;;;5.23;2.40;;;12.00;81.40;12.00;96669.00;;;;5085803;28;20263;-86
2022/12/25 01:26:21;;;;;;;6.07;2.23;;;12.00;81.40;12.10;96663.00;;;;5080338;28;20238;-86
2022/12/25 01:28:49;;;;;;;4.77;2.13;;;12.00;81.40;12.10;96657.00;;;;5074575;28;20807;-85
2022/12/25 01:31:19;;;;;;;2.50;2.13;;;12.00;81.40;12.00;96668.00;;;;5088078;28;20210;-85
2022/12/25 01:33:47;;;;;;;2.87;1.97;;;12.00;81.40;12.00;96667.00;;;;5085458;28;20319;-85
2022/12/25 01:36:17;;;;;;;2.40;1.70;;;12.00;81.40;12.00;96663.00;;;;5081279;28;20192;-86
2022/12/25 01:38:46;;;;;;;4.40;1.80;;;12.00;81.30;12.00;96672.00;;;;5076686;28;21364;-86
2022/12/25 01:41:16;;;;;;;15.57;2.97;;;12.00;81.20;12.00;96671.00;;;;5076906;28;20280;-85
2022/12/25 01:44:02;;;;;;;8.07;2.67;;;12.00;81.10;12.00;96674.00;;;;5073771;28;20275;-85
2022/12/25 01:46:31;;;;;;;2.90;1.70;;;12.00;80.80;12.00;96678.00;;;;5073907;28;20267;-85
2022/12/25 01:49:02;;;;;;;4.20;2.20;;;12.00;81.30;12.00;96686.00;;;;5074095;28;20224;-85
2022/12/25 01:51:38;;;;;;;5.33;2.00;;;12.00;81.30;12.00;96679.00;;;;5077859;28;20192;-85
2022/12/25 01:54:12;;;;;;;2.07;1.87;;;12.00;81.40;12.00;96675.00;;;;5085428;28;20224;-85
2022/12/25 01:56:43;;;;;;;3.27;2.40;;;12.00;81.40;12.00;96675.00;;;;5073662;28;20276;-85
2022/12/25 01:59:13;;;;;;;2.20;2.00;;;12.00;81.40;12.00;96677.00;;;;5073948;28;20216;-85
2022/12/25 02:01:40;;;;;;;2.77;2.23;;;12.00;81.50;12.00;96678.00;;;;5073850;28;20286;-85
2022/12/25 02:04:21;;;;;;;2.30;2.10;;;12.00;81.50;12.00;96672.00;;;;5093809;28;20617;-86
2022/12/25 02:06:51;;;;;;;2.20;2.10;;;12.00;81.30;12.00;96674.00;;;;5075541;28;20278;-85
2022/12/25 02:09:20;;;;;;;2.13;1.90;;;12.00;81.40;12.00;96670.00;;;;5090384;28;20222;-86
2022/12/25 02:11:56;;;;;;;2.80;2.23;;;11.90;81.40;12.00;96666.00;;;;5083014;28;20224;-85
2022/12/25 02:14:24;;;;;;;2.00;1.90;;;11.90;81.40;12.00;96665.00;;;;5073550;28;20322;-85
2022/12/25 02:17:05;;;;;;;4.20;2.47;;;11.90;81.40;12.00;96666.00;;;;5073303;28;20231;-85
2022/12/25 02:19:57;;;;;;;2.47;2.27;;;12.00;81.40;12.00;96668.00;;;;5079635;28;20206;-86
2022/12/25 02:22:42;;;;;;;2.50;2.30;;;12.00;81.40;12.00;96666.00;;;;5085540;28;20572;-85
2022/12/25 02:25:33;;;;;;;2.27;1.90;;;12.00;81.40;12.00;96668.00;;;;5076238;28;20239;-85
2022/12/25 02:28:12;;;;;;;2.73;2.20;;;12.00;81.30;12.00;96670.00;;;;5053269;28;20272;-85
2022/12/25 02:30:49;;;;;;;3.13;2.17;;;12.00;81.50;12.00;96662.00;;;;5083022;28;20219;-86
2022/12/25 02:36:20;;;;;;;5.47;2.30;;;12.00;81.70;12.00;96669.00;;;;5067900;28;20243;-85
2022/12/25 02:41:48;;;;;;;2.53;1.70;;;11.90;81.80;12.00;96676.00;;;;5076810;28;20254;-85
2022/12/25 03:07:09;;;;;;;3.40;2.20;;;12.00;82.00;12.00;96664.00;;;;5080615;28;20236;-86
2022/12/25 03:12:38;;;;;;;3.10;2.13;;;12.00;82.10;12.00;96661.00;;;;5083139;28;20746;-85
2022/12/25 03:17:58;;;;;;;6.20;2.27;;;12.00;82.00;12.00;96654.00;;;;5072739;28;20179;-86
2022/12/25 03:28:44;;;;;;;2.03;1.93;;;12.00;82.10;12.00;96649.00;;;;5072520;28;20646;-85
2022/12/25 03:31:19;;;;;;;2.50;1.90;;;12.00;82.20;12.10;96649.00;;;;5074884;28;20223;-85
2022/12/25 04:36:30;;;;;;;3.53;2.30;;;12.10;82.60;12.10;96606.00;;;;5056010;28;20188;-85
2022/12/25 04:38:58;;;;;;;9.97;3.23;;;12.10;82.50;12.10;96597.00;;;;5055819;28;20220;-85
2022/12/25 04:41:25;;;;;;;2.23;2.03;;;12.10;82.40;12.10;96594.00;;;;5055163;28;20802;-86
2022/12/25 04:43:52;;;;;;;20.37;3.37;;;12.10;82.50;12.10;96592.00;;;;5055532;28;20295;-86
2022/12/25 04:46:19;;;;;;;4.37;2.40;;;12.10;82.40;12.20;96595.00;;;;5055582;28;20644;-85
2022/12/25 04:48:47;;;;;;;10.07;2.50;;;12.10;82.40;12.20;96602.00;;;;5055281;28;20209;-85
2022/12/25 04:51:18;;;;;;;8.50;2.57;;;12.10;82.30;12.20;96601.00;;;;5055271;28;20193;-86
2022/12/25 04:53:47;;;;;;;6.30;2.00;;;12.10;82.30;12.20;96602.00;;;;5074040;28;20302;-85
2022/12/25 04:56:17;;;;;;;4.87;2.23;;;12.10;82.30;12.20;96589.00;;;;5095117;28;20243;-87
2022/12/25 04:58:45;;;;;;;3.30;1.60;;;12.10;82.30;12.20;96595.00;;;;5095339;28;20624;-86
2022/12/25 05:01:13;;;;;;;1.90;1.70;;;12.10;82.40;12.20;96601.00;;;;5091261;28;20283;-87
2022/12/25 05:03:41;;;;;;;14.13;2.33;;;12.10;82.30;12.20;96604.00;;;;5089505;28;20606;-86
2022/12/25 05:06:08;;;;;;;1.50;1.40;;;12.10;82.30;12.20;96583.00;;;;5095195;28;20391;-85
2022/12/25 05:08:37;;;;;;;3.10;1.73;;;12.10;82.30;12.20;96597.00;;;;5095136;28;20291;-86
2022/12/25 05:11:09;;;;;;;3.90;1.93;;;12.10;82.20;12.20;96605.00;;;;5095464;28;20282;-85
2022/12/25 05:13:38;;;;;;;2.00;1.80;;;12.10;82.30;12.20;96608.00;;;;5094968;28;20292;-86
2022/12/25 05:16:07;;;;;;;3.13;1.57;;;12.10;82.40;12.20;96602.00;;;;5094841;28;20261;-85
2022/12/25 05:18:34;;;;;;;1.57;1.40;;;12.10;82.50;12.20;96594.00;;;;5095439;28;20282;-85
2022/12/25 05:21:02;;;;;;;6.53;1.60;;;12.10;82.40;12.20;96599.00;;;;5094705;28;20195;-85
2022/12/25 05:23:30;;;;;;;11.10;2.20;;;12.10;82.30;12.20;96597.00;;;;5094309;28;20741;-85
2022/12/25 05:25:57;;;;;;;8.77;2.17;;;12.10;82.30;12.20;96598.00;;;;5094570;28;20290;-86
2022/12/25 05:28:24;;;;;;;1.73;1.63;;;12.10;82.40;12.20;96602.00;;;;5094531;28;20281;-86
2022/12/25 05:30:56;;;;;;;2.27;1.53;;;12.10;82.40;12.20;96597.00;;;;5094713;28;20226;-85
2022/12/25 05:33:24;;;;;;;5.27;1.70;;;12.10;83.10;12.20;96599.00;;;;5094312;28;20211;-85
2022/12/25 05:35:51;;;;;;;11.37;1.70;;;12.10;83.20;12.30;96599.00;;;;5094222;28;20215;-86
2022/12/25 05:38:18;;;;;;;4.17;1.50;;;12.10;82.40;12.30;96596.00;;;;5094214;28;20198;-85
2022/12/25 05:40:45;;;;;;;1.60;1.50;;;12.10;82.40;12.20;96589.00;;;;5094526;28;20208;-85
2022/12/25 05:43:12;;;;;;;3.07;1.90;;;12.20;82.60;12.30;96593.00;;;;5094147;28;20217;-85
2022/12/25 05:45:39;;;;;;;1.80;1.70;;;12.10;82.30;12.30;96600.00;;;;5076045;28;20286;-85
2022/12/25 05:48:09;;;;;;;5.80;1.60;;;12.20;82.50;12.30;96602.00;;;;5073932;28;20223;-85
2022/12/25 05:50:37;;;;;;;19.43;2.40;;;12.20;82.40;12.30;96599.00;;;;5074132;28;20234;-85
2022/12/25 05:53:05;;;;;;;4.50;1.63;;;12.20;82.50;12.30;96594.00;;;;5073228;28;20212;-85
2022/12/25 05:55:34;;;;;;;1.60;1.50;;;12.20;82.40;12.30;96580.00;;;;5073656;28;20594;-85
2022/12/25 05:58:01;;;;;;;13.13;2.63;;;12.20;82.20;12.30;96579.00;;;;5074017;28;20567;-85
2022/12/25 06:00:28;;;;;;;3.30;1.50;;;12.20;82.10;12.30;96588.00;;;;5073569;28;20227;-86
2022/12/25 06:02:55;;;;;;;7.83;2.07;;;12.20;82.20;12.30;96588.00;;;;5073268;28;20219;-86
2022/12/25 06:05:24;;;;;;;4.93;1.70;;;12.20;82.30;12.30;96592.00;;;;5073586;28;20235;-85
2022/12/25 06:07:51;;;;;;;2.67;1.33;;;12.20;82.30;12.30;96589.00;;;;5091572;28;20282;-86
2022/12/25 06:10:18;;;;;;;1.20;1.10;;;12.20;82.40;12.30;96594.00;;;;5093929;28;20278;-87
2022/12/25 06:12:46;;;;;;;1.10;1.10;;;12.20;82.20;12.30;96601.00;;;;5093729;28;20302;-86
2022/12/25 06:15:13;;;;;;;2.07;1.30;;;12.20;82.10;12.30;96596.00;;;;5075991;28;20273;-85
2022/12/25 06:17:40;;;;;;;3.17;1.30;;;12.20;82.10;12.20;96593.00;;;;5073270;28;20279;-85
2022/12/25 06:20:09;;;;;;;3.47;1.87;;;12.20;82.10;12.20;96591.00;;;;5073367;28;20279;-86
2022/12/25 06:22:37;;;;;;;4.23;1.60;;;12.20;82.30;12.20;96595.00;;;;5072985;28;20302;-86
2022/12/25 06:25:05;;;;;;;1.97;1.77;;;12.20;82.40;12.20;96589.00;;;;5075023;28;20200;-86
2022/12/25 06:27:32;;;;;;;9.93;1.70;;;12.20;82.40;12.20;96587.00;;;;5073123;28;20223;-85
2022/12/25 06:29:59;;;;;;;1.47;1.23;;;12.20;82.40;12.20;96585.00;;;;5073027;28;20227;-86
2022/12/25 06:32:26;;;;;;;12.60;2.27;;;12.10;83.00;12.20;96587.00;;;;5073049;28;20246;-85
2022/12/25 06:34:53;;;;;;;1.13;1.10;;;12.20;82.30;12.20;96582.00;;;;5073254;28;20255;-86
2022/12/25 06:37:20;;;;;;;2.53;1.73;;;12.20;82.40;12.20;96582.00;;;;5072907;28;20667;-85
2022/12/25 06:39:49;;;;;;;3.63;1.50;;;12.10;82.30;12.20;96589.00;;;;5072992;28;20206;-86
2022/12/25 06:42:16;;;;;;;2.80;1.60;;;12.10;82.30;12.20;96581.00;;;;5072749;28;20659;-85
2022/12/25 06:44:43;;;;;;;5.73;1.80;;;12.10;82.30;12.20;96579.00;;;;5072662;28;20192;-85
2022/12/25 06:47:11;;;;;;;4.43;2.00;;;12.10;82.40;12.20;96574.00;;;;5072830;28;20206;-86
2022/12/25 06:49:38;;;;;;;2.30;1.70;;;12.10;82.40;12.20;96573.00;;;;5072577;28;20196;-86
2022/12/25 06:52:05;;;;;;;1.67;1.30;;;12.10;82.40;12.20;96584.00;;;;5072559;28;20228;-86
2022/12/25 06:54:32;;;;;;;5.30;2.00;;;12.10;82.40;12.20;96580.00;;;;5072653;28;20671;-85
2022/12/25 06:57:01;;;;;;;3.27;1.57;;;12.10;82.40;12.10;96591.00;;;;5072804;28;20224;-86
2022/12/25 06:59:28;;;;;;;2.23;1.30;;;12.10;82.50;12.10;96597.00;;;;5072968;28;20286;-85
2022/12/25 07:01:57;;;;;;;1.60;1.50;;;12.20;82.60;12.20;96596.00;;;;5072745;28;20200;-85
2022/12/25 07:04:30;;;;;;;2.93;1.60;;;12.10;82.60;12.20;96579.00;;;;5072483;28;20261;-86
2022/12/25 07:06:58;;;;;;;1.60;1.27;;;12.10;82.60;12.20;96572.00;;;;5072672;28;20285;-86
2022/12/25 07:09:25;;;;;;;2.93;1.37;;;12.10;82.70;12.10;96585.00;;;;5072775;28;20239;-85
2022/12/25 07:11:52;;;;;;;1.77;1.43;;;12.10;82.80;12.10;96590.00;;;;5091576;28;20194;-86
2022/12/25 07:14:23;;;;;;;2.93;1.67;;;12.10;82.70;12.10;96582.00;;;;5092937;28;20219;-86
2022/12/25 07:16:50;;;;;;;16.73;2.77;;;12.10;82.70;12.10;96583.00;;;;5092515;28;20199;-85
2022/12/25 07:19:18;;;;;;;2.10;1.67;;;12.10;82.80;12.10;96582.00;;;;5085247;28;20202;-85
2022/12/25 07:21:46;;;;;;;3.00;1.80;;;12.00;82.70;12.00;96588.00;;;;5072328;28;20203;-85
2022/12/25 07:24:18;;;;;;;2.03;1.57;;;12.00;82.60;12.10;96590.00;;;;5072481;28;20234;-86
2022/12/25 07:26:45;;;;;;;1.30;1.20;;;12.00;82.60;12.00;96589.00;;;;5072610;28;20186;-86
2022/12/25 07:29:12;;;;;;;4.53;1.60;;;12.00;82.80;12.00;96590.00;;;;5072198;28;20655;-85
2022/12/25 07:31:41;;;;;;;2.73;1.80;;;12.00;82.90;12.10;96592.00;;;;5072269;28;20196;-85
2022/12/25 07:34:08;;;;;;;5.10;1.83;;;12.00;82.90;12.10;96586.00;;;;5072262;28;20297;-85
2022/12/25 07:36:35;;;;;;;6.43;1.90;;;12.00;83.00;12.10;96591.00;;;;5076732;28;20309;-84
2022/12/25 07:39:02;;;;;;;3.20;2.00;;;12.00;83.10;12.10;96579.00;;;;5075871;28;20207;-91
2022/12/25 07:41:30;;;;;;;1.93;1.57;;;12.00;83.30;12.20;96582.00;;;;5078711;28;20203;-91
2022/12/25 07:43:57;;;;;;;4.80;1.90;;;12.00;83.30;12.20;96601.00;;;;5078322;28;20269;-90
2022/12/25 07:46:24;;;;;;;3.17;2.00;;;12.00;83.30;12.20;96593.00;;;;5077056;28;20298;-91
2022/12/25 07:48:52;;;;;;;2.30;1.83;;;12.10;83.50;12.30;96588.00;;;;5076486;28;20223;-91
2022/12/25 07:51:20;;;;;;;2.80;1.80;;;12.10;83.50;12.40;96579.00;;;;5072982;28;20226;-91
2022/12/25 07:53:47;;;;;;;4.50;1.80;;;12.30;83.60;12.40;96595.00;;;;5077193;28;20322;-90
2022/12/25 07:56:17;;;;;;;3.70;1.63;;;12.10;83.50;12.40;96587.00;;;;5074980;28;20311;-90
2022/12/25 07:58:46;;;;;;;3.40;2.00;;;12.20;83.50;12.40;96590.00;;;;5077182;28;20285;-91
2022/12/25 08:01:19;;;;;;;3.83;1.57;;;12.20;83.60;12.50;96591.00;;;;5077017;28;20682;-91
2022/12/25 08:03:50;;;;;;;17.37;2.47;;;12.30;83.50;12.50;96603.00;;;;5082438;28;20652;-90
2022/12/25 08:06:21;;;;;;;1.90;1.70;;;12.30;83.50;12.60;96595.00;;;;5074960;28;20280;-91
2022/12/25 08:08:48;;;;;;;4.37;1.97;;;12.30;83.50;12.60;96588.00;;;;5080813;28;20192;-91
2022/12/25 08:11:15;;;;;;;1.83;1.60;;;12.40;83.60;12.60;96596.00;;;;5080895;28;20298;-90
2022/12/25 08:13:43;;;;;;;2.47;1.90;;;12.40;83.50;12.60;96594.00;;;;5082275;28;20335;-92
2022/12/25 08:16:11;;;;;;;1.80;1.70;;;12.40;83.40;12.70;96585.00;;;;5086279;28;20239;-90
2022/12/25 08:18:39;;;;;;;10.33;2.00;;;12.40;83.30;12.70;96584.00;;;;5085514;28;20228;-91
2022/12/25 08:21:10;;;;;;;6.97;2.40;;;12.50;83.40;12.70;96586.00;;;;5082001;28;20234;-91
2022/12/25 08:23:42;;;;;;;4.80;2.13;;;12.40;83.40;12.80;96586.00;;;;5085341;28;20269;-91
2022/12/25 08:26:17;;;;;;;3.23;2.17;;;12.50;83.40;12.80;96579.00;;;;5080086;28;20279;-91
2022/12/25 08:28:45;;;;;;;3.70;2.30;;;12.50;83.50;12.80;96587.00;;;;5080966;28;20200;-92
2022/12/25 08:31:18;;;;;;;7.07;2.37;;;12.60;83.60;12.90;96572.00;;;;5081037;28;20204;-91
2022/12/25 08:33:46;;;;;;;2.70;2.27;;;12.60;83.50;12.90;96571.00;;;;5082375;28;20714;-90
2022/12/25 08:36:13;;;;;;;2.43;2.23;;;12.60;83.60;13.00;96580.00;;;;5083610;28;20314;-92
2022/12/25 08:38:43;;;;;;;2.63;2.43;;;12.70;83.70;13.10;96582.00;;;;5081215;28;20226;-92
2022/12/25 08:41:12;;;;;;;8.03;2.63;;;12.70;83.70;13.10;96576.00;;;;5080412;28;20242;-91
2022/12/25 08:43:40;;;;;;;3.43;2.20;;;12.80;83.70;13.10;96582.00;;;;5079399;28;20219;-91
2022/12/25 08:46:07;;;;;;;2.90;2.20;;;12.80;83.70;13.20;96588.00;;;;5078216;28;20199;-90
2022/12/25 08:48:35;;;;;;;2.60;2.10;;;12.80;83.60;13.20;96588.00;;;;5077731;28;20751;-89
2022/12/25 08:51:04;;;;;;;2.37;2.13;;;12.90;83.50;13.20;96585.00;;;;5078762;28;20259;-88
2022/12/25 08:53:31;;;;;;;9.30;2.57;;;12.90;83.50;13.20;96585.00;;;;5078243;28;20261;-89
2022/12/25 08:56:03;;;;;;;5.90;2.53;;;12.90;83.40;13.30;96586.00;;;;5082477;28;20225;-91
2022/12/25 08:58:30;;;;;;;3.90;2.40;;;13.00;83.30;13.30;96583.00;;;;5078845;28;20204;-90
2022/12/25 09:00:58;;;;;;;2.33;2.13;;;13.00;83.20;13.30;96581.00;;;;5082734;28;20222;-92
2022/12/25 09:03:25;;;;;;;2.43;2.23;;;13.00;83.10;13.30;96583.00;;;;5080433;28;20299;-90
2022/12/25 09:05:54;;;;;;;4.77;2.30;;;13.00;83.00;13.30;96579.00;;;;5078684;28;20256;-90
2022/12/25 09:08:21;;;;;;;3.50;2.10;;;13.00;83.00;13.30;96575.00;;;;5077893;28;20307;-91
2022/12/25 09:10:49;;;;;;;2.60;2.40;;;13.00;83.00;13.30;96568.00;;;;5079909;28;20238;-91
2022/12/25 09:13:17;;;;;;;8.23;2.53;;;13.10;82.90;13.30;96578.00;;;;5078519;28;20593;-91
2022/12/25 09:15:45;;;;;;;2.37;2.27;;;13.10;82.90;13.30;96571.00;;;;5078773;28;20215;-90
2022/12/25 09:18:12;;;;;;;3.87;2.63;;;13.10;82.90;13.30;96571.00;;;;5077684;28;20283;-91
2022/12/25 09:20:39;;;;;;;2.47;2.20;;;13.10;82.90;13.30;96569.00;;;;5077325;28;20637;-89
2022/12/25 09:23:06;;;;;;;2.63;2.13;;;13.10;82.80;13.40;96570.00;;;;5077703;28;20737;-91
2022/12/25 09:25:33;;;;;;;3.40;2.33;;;13.10;82.70;13.40;96568.00;;;;5083718;28;20616;-89
2022/12/25 09:28:00;;;;;;;3.07;2.27;;;13.20;82.80;13.40;96570.00;;;;5077020;28;20286;-91
2022/12/25 09:30:29;;;;;;;2.70;2.50;;;13.10;82.70;13.40;96579.00;;;;5077123;28;20600;-91
2022/12/25 09:32:56;;;;;;;2.50;2.30;;;13.10;82.60;13.40;96580.00;;;;5076896;28;20258;-90
2022/12/25 09:35:23;;;;;;;3.37;2.63;;;13.20;82.70;13.40;96572.00;;;;5073910;28;20283;-89
2022/12/25 09:37:50;;;;;;;4.90;2.77;;;13.20;83.00;13.50;96570.00;;;;5072837;28;20251;-91
2022/12/25 09:40:21;;;;;;;5.10;2.70;;;13.20;83.20;13.60;96571.00;;;;5072021;28;20287;-90
2022/12/25 09:42:49;;;;;;;2.50;2.30;;;13.30;83.50;13.60;96562.00;;;;5074486;28;20255;-91
2022/12/25 09:45:25;;;;;;;2.73;2.53;;;13.30;83.60;13.70;96555.00;;;;5081403;28;20282;-90
2022/12/25 09:47:57;;;;;;;2.70;2.50;;;13.40;83.80;13.80;96548.00;;;;5074904;28;20195;-91
2022/12/25 09:50:40;;;;;;;4.53;2.80;;;13.50;83.90;13.90;96547.00;;;;5079238;28;20203;-92
2022/12/25 09:53:15;;;;;;;5.10;2.73;;;13.60;84.20;14.10;96549.00;;;;5076146;28;20224;-92
2022/12/25 09:55:53;;;;;;;5.17;2.50;;;13.70;84.70;14.30;96560.00;;;;5075284;28;20212;-92
2022/12/25 09:58:20;;;;;;;4.93;3.00;;;13.90;85.10;14.40;96569.00;;;;5078777;28;20203;-90
2022/12/25 10:01:02;;;;;;;2.77;2.53;;;14.00;85.70;14.60;96566.00;;;;5083155;28;20208;-91
2022/12/25 10:03:59;;;;;;;3.33;2.57;;;14.20;85.90;14.90;96566.00;;;;5081515;28;20227;-92
2022/12/25 10:06:40;;;;;;;3.83;2.67;;;14.40;85.60;15.10;96576.00;;;;5079827;28;20301;-91
2022/12/25 10:09:44;;;;;;;7.00;2.60;;;14.60;86.10;15.30;96578.00;;;;5080386;28;20289;-92
2022/12/25 10:12:42;;;;;;;2.80;2.60;;;14.90;84.20;15.50;96577.00;;;;5070847;28;20306;-92
2022/12/25 10:15:32;;;;;;;4.50;2.47;;;15.10;84.90;15.60;96577.00;;;;5076730;28;20313;-93
2022/12/25 10:18:30;;;;;;;8.83;3.03;;;15.30;85.00;15.80;96584.00;;;;5078882;28;20223;-92
2022/12/25 10:21:01;;;;;;;2.10;2.00;;;15.40;84.80;15.90;96579.00;;;;5082107;28;20309;-92
2022/12/25 10:23:34;;;;;;;8.63;2.30;;;15.60;84.90;16.10;96578.00;;;;5078434;28;20220;-91
2022/12/25 10:26:03;;;;;;;4.00;2.00;;;15.80;84.70;16.20;96575.00;;;;5075464;28;20275;-93
2022/12/25 10:28:39;;;;;;;2.00;1.90;;;15.90;84.10;16.30;96571.00;;;;5075805;28;20743;-92
2022/12/25 10:31:20;;;;;;;4.23;1.90;;;16.00;82.90;16.40;96565.00;;;;5075867;28;20554;-92
2022/12/25 10:33:50;;;;;;;2.00;1.90;;;16.10;82.10;16.40;96554.00;;;;5080947;28;20234;-91
2022/12/25 10:36:22;;;;;;;1.67;1.57;;;16.20;82.50;16.50;96553.00;;;;5074663;28;20315;-91
2022/12/25 10:38:50;;;;;;;2.43;2.13;;;16.30;81.60;16.50;96546.00;;;;5074586;28;20626;-92
2022/12/25 10:41:42;;;;;;;8.33;2.40;;;16.30;81.20;16.50;96542.00;;;;5079391;28;20312;-93
2022/12/25 10:44:15;;;;;;;1.93;1.80;;;16.30;79.90;16.40;96533.00;;;;5078327;28;20315;-93
2022/12/25 10:46:48;;;;;;;2.00;1.90;;;16.30;79.80;16.40;96528.00;;;;5076780;28;20283;-91
2022/12/25 10:49:20;;;;;;;1.87;1.77;;;16.30;79.70;16.30;96525.00;;;;5077650;28;21026;-91
2022/12/25 10:51:49;;;;;;;2.60;1.90;;;16.30;79.10;16.20;96520.00;;;;5076531;28;20226;-91
2022/12/25 10:54:23;;;;;;;2.00;1.90;;;16.20;78.90;16.20;96523.00;;;;5075698;28;20309;-91
2022/12/25 10:56:59;;;;;;;12.10;2.60;;;16.10;78.50;16.10;96517.00;;;;5076858;28;20212;-91
2022/12/25 10:59:28;;;;;;;1.97;1.80;;;16.10;78.50;16.10;96517.00;;;;5079387;28;20220;-91
2022/12/25 11:02:03;;;;;;;3.43;2.20;;;16.00;78.80;16.00;96515.00;;;;5083143;28;20214;-91
2022/12/25 11:04:35;;;;;;;2.10;2.00;;;15.90;78.70;16.00;96505.00;;;;5091400;28;20223;-91
2022/12/25 11:07:13;;;;;;;5.80;2.17;;;15.90;78.60;16.00;96502.00;;;;5090864;28;20252;-93
2022/12/25 11:09:40;;;;;;;4.37;2.27;;;15.80;78.60;15.90;96490.00;;;;5077955;28;20223;-92
2022/12/25 11:12:19;;;;;;;2.53;2.00;;;15.80;79.00;15.90;96492.00;;;;5076187;28;20630;-94
2022/12/25 11:15:06;;;;;;;2.00;1.90;;;15.70;78.40;15.80;96490.00;;;;5076885;28;20207;-93
2022/12/25 11:17:36;;;;;;;1.90;1.80;;;15.70;78.20;15.80;96495.00;;;;5076775;28;20230;-94
2022/12/25 11:20:19;;;;;;;2.27;1.67;;;15.70;78.90;15.80;96498.00;;;;5085155;28;20235;-92
2022/12/25 11:22:50;;;;;;;2.00;1.70;;;15.60;79.10;15.70;96496.00;;;;5086653;28;20241;-93
2022/12/25 11:25:28;;;;;;;2.67;1.90;;;15.60;79.10;15.70;96492.00;;;;5077932;28;20287;-93
2022/12/25 11:28:01;;;;;;;1.80;1.70;;;15.60;79.00;15.70;96491.00;;;;5073547;28;20208;-92
2022/12/25 11:30:31;;;;;;;3.83;1.80;;;15.50;79.20;15.70;96489.00;;;;5078791;28;20282;-91
2022/12/25 11:33:04;;;;;;;2.60;1.73;;;15.50;79.70;15.70;96488.00;;;;5076738;28;20734;-91
2022/12/25 11:35:44;;;;;;;2.37;2.17;;;15.50;79.60;15.60;96474.00;;;;5078900;28;20200;-91
2022/12/25 11:38:13;;;;;;;1.70;1.60;;;15.40;79.40;15.60;96475.00;;;;5075567;28;20259;-92
2022/12/25 11:40:49;;;;;;;3.93;2.40;;;15.40;79.40;15.60;96471.00;;;;5076219;28;20352;-91
2022/12/25 11:43:23;;;;;;;4.37;1.93;;;15.40;79.40;15.60;96466.00;;;;5076789;28;20225;-92
2022/12/25 11:45:59;;;;;;;1.90;1.67;;;15.40;79.50;15.60;96474.00;;;;5081161;28;20733;-92
2022/12/25 11:48:33;;;;;;;1.93;1.70;;;15.40;79.60;15.60;96465.00;;;;5080564;28;20238;-91
2022/12/25 11:51:05;;;;;;;2.87;1.90;;;15.40;79.70;15.60;96456.00;;;;5081461;28;20230;-91
2022/12/25 11:53:43;;;;;;;2.30;2.10;;;15.40;79.90;15.60;96451.00;;;;5086002;28;20255;-92
2022/12/25 11:56:17;;;;;;;3.23;2.10;;;15.40;79.60;15.70;96456.00;;;;5075615;28;20448;-93
2022/12/25 11:58:49;;;;;;;7.90;1.90;;;15.40;79.80;15.70;96453.00;;;;5083871;28;20230;-93
2022/12/25 12:01:26;;;;;;;2.70;1.60;;;15.40;80.00;15.70;96445.00;;;;5084502;28;20309;-91
2022/12/25 12:03:55;;;;;;;2.80;1.87;;;15.40;80.10;15.70;96444.00;;;;5082544;28;20215;-91
2022/12/25 12:06:32;;;;;;;2.80;1.60;;;15.40;80.20;15.70;96438.00;;;;5083135;28;20282;-92
2022/12/25 12:09:22;;;;;;;3.20;1.63;;;15.40;79.90;15.70;96442.00;;;;5084227;28;20203;-92
2022/12/25 12:11:58;;;;;;;2.17;1.93;;;15.50;79.90;15.70;96435.00;;;;5083108;28;20283;-91
2022/12/25 12:14:43;;;;;;;1.60;1.33;;;15.50;79.90;15.70;96429.00;;;;5080833;28;20216;-91
2022/12/25 12:17:13;;;;;;;1.60;1.50;;;15.50;79.70;15.70;96422.00;;;;5100867;28;20625;-92
2022/12/25 12:19:40;;;;;;;1.63;1.50;;;15.50;80.00;15.70;96411.00;;;;5099018;28;20207;-92
2022/12/25 12:22:17;;;;;;;4.70;1.63;;;15.50;80.00;15.80;96406.00;;;;5095880;28;20212;-90
2022/12/25 12:24:55;;;;;;;1.53;1.43;;;15.50;80.00;15.70;96403.00;;;;5088421;28;20196;-92
2022/12/25 12:27:31;;;;;;;4.60;1.47;;;15.50;79.70;15.70;96406.00;;;;5087840;28;20254;-91
2022/12/25 12:30:00;;;;;;;2.00;1.53;;;15.50;79.90;15.70;96409.00;;;;5086730;28;20602;-92
2022/12/25 12:32:39;;;;;;;1.47;1.37;;;15.50;79.90;15.70;96406.00;;;;5083246;28;20265;-91
2022/12/25 12:35:17;;;;;;;1.67;1.57;;;15.50;79.50;15.70;96403.00;;;;5084061;28;20237;-93
2022/12/25 12:37:47;;;;;;;2.00;1.80;;;15.50;79.50;15.70;96402.00;;;;5088341;28;20219;-92
2022/12/25 12:40:33;;;;;;;1.90;1.57;;;15.50;79.80;15.70;96395.00;;;;5080502;28;20200;-92
2022/12/25 12:43:01;;;;;;;1.70;1.60;;;15.50;79.20;15.80;96395.00;;;;5082171;28;20242;-92
2022/12/25 12:45:33;;;;;;;1.73;1.63;;;15.50;79.90;15.80;96398.00;;;;5083572;28;20363;-92
2022/12/25 12:48:01;;;;;;;1.53;1.43;;;15.50;80.00;15.80;96391.00;;;;5081612;28;20229;-92
2022/12/25 12:50:38;;;;;;;1.60;1.50;;;15.50;80.00;15.90;96395.00;;;;5082238;28;20291;-92
2022/12/25 12:53:28;;;;;;;1.63;1.53;;;15.50;79.70;15.90;96385.00;;;;5084757;28;20238;-93
2022/12/25 12:55:57;;;;;;;2.40;1.90;;;15.50;79.50;15.90;96378.00;;;;5080857;28;20278;-93
2022/12/25 12:58:32;;;;;;;1.50;1.40;;;15.60;80.00;15.90;96368.00;;;;5075972;28;20306;-93
2022/12/25 13:01:13;;;;;;;1.80;1.70;;;15.60;79.80;15.90;96374.00;;;;5089110;28;20276;-92